Time;durP1;ratioP1;P1;durP2;ratioP2;P2;SDS_P1;SDS_P2;PMS_P1;PMS_P2;Temp;Humidity;BMP_temperature;BMP_pressure;BME280_temperature;BME280_humidity;BME280_pressure;Samples;Min_cycle;Max_cycle;Signal;HPM_P1;HPM_P2
2022/01/03 00:00:19;;;;;;;10.20;2.13;;;;;;;9.85;100.00;100415.91;6182423;23;20086;-86
2022/01/03 00:02:45;;;;;;;12.50;2.83;;;;;;;9.88;100.00;100431.66;6181230;23;20244;-86
2022/01/03 00:05:11;;;;;;;14.45;3.15;;;;;;;9.88;100.00;100445.03;6133987;23;20423;-85
2022/01/03 00:07:39;;;;;;;9.57;2.35;;;;;;;9.86;100.00;100445.19;6182915;23;20017;-86
2022/01/03 00:10:06;;;;;;;10.77;2.53;;;;;;;9.85;100.00;100454.25;6157817;23;20017;-85
2022/01/03 00:12:32;;;;;;;13.02;2.70;;;;;;;9.85;100.00;100448.06;6208491;23;20027;-87
2022/01/03 00:14:59;;;;;;;14.75;2.00;;;;;;;9.83;100.00;100458.94;6206927;23;20021;-85
2022/01/03 00:17:25;;;;;;;12.73;2.17;;;;;;;9.84;100.00;100406.16;6182773;23;20031;-85
2022/01/03 00:19:50;;;;;;;11.27;2.13;;;;;;;9.81;100.00;100471.69;6208501;23;20355;-86
2022/01/03 00:22:20;;;;;;;15.90;2.40;;;;;;;9.79;100.00;100470.19;6209180;23;20095;-84
2022/01/03 00:24:56;;;;;;;14.68;2.50;;;;;;;9.76;100.00;100463.31;6182125;23;20351;-87
2022/01/03 00:27:28;;;;;;;11.85;2.80;;;;;;;9.77;100.00;100472.19;6185478;23;20012;-85
2022/01/03 00:29:53;;;;;;;13.55;2.88;;;;;;;9.77;100.00;100461.47;6183421;23;20351;-85
2022/01/03 00:32:22;;;;;;;10.55;2.17;;;;;;;9.73;100.00;100484.25;6207028;23;20027;-86
2022/01/03 00:34:51;;;;;;;8.15;2.03;;;;;;;9.72;100.00;100478.03;6181997;23;20016;-85
2022/01/03 00:37:21;;;;;;;10.23;1.77;;;;;;;9.65;100.00;100453.75;6183186;23;20350;-85
2022/01/03 00:39:47;;;;;;;13.73;2.63;;;;;;;9.66;100.00;100494.75;6182764;23;20112;-85
2022/01/03 00:42:14;;;;;;;9.48;2.17;;;;;;;9.65;100.00;100485.06;6182542;23;20016;-86
2022/01/03 00:44:42;;;;;;;9.50;1.92;;;;;;;9.63;100.00;100487.06;6209567;23;20024;-84
2022/01/03 00:47:10;;;;;;;10.63;2.35;;;;;;;9.60;100.00;100498.94;6184403;23;20016;-85
2022/01/03 00:49:38;;;;;;;9.10;2.30;;;;;;;9.57;100.00;100504.63;6133264;23;20013;-85
2022/01/03 00:52:03;;;;;;;5.53;1.55;;;;;;;9.54;100.00;100504.97;6208253;23;20016;-86
2022/01/03 00:54:29;;;;;;;12.57;2.20;;;;;;;9.55;100.00;100495.09;6207475;23;20398;-86
2022/01/03 00:57:04;;;;;;;11.32;2.13;;;;;;;9.56;100.00;100494.09;6178436;23;20029;-86
2022/01/03 00:59:42;;;;;;;9.70;2.40;;;;;;;9.56;100.00;100484.22;6178120;23;20150;-87
2022/01/03 01:02:11;;;;;;;16.80;2.67;;;;;;;9.54;100.00;100504.97;6177443;23;20554;-86
2022/01/03 01:04:37;;;;;;;19.83;3.93;;;;;;;9.52;100.00;100500.78;6182337;23;20088;-87
2022/01/03 01:07:05;;;;;;;17.55;2.95;;;;;;;9.49;100.00;100509.97;6160124;23;20020;-85
2022/01/03 01:09:30;;;;;;;14.40;2.47;;;;;;;9.46;100.00;100491.56;6184404;23;20088;-85
2022/01/03 01:11:59;;;;;;;18.05;3.40;;;;;;;9.44;100.00;100515.84;6183521;23;20145;-86
2022/01/03 01:14:26;;;;;;;;;;;;;;;9.41;100.00;100500.09;6136110;23;20016;-86
2022/01/03 01:16:51;;;;;;;11.52;2.60;;;;;;;9.35;100.00;100521.31;6209493;23;19912;-86
2022/01/03 01:19:18;;;;;;;16.17;3.80;;;;;;;9.37;100.00;100503.25;6159718;23;20016;-85
2022/01/03 01:21:43;;;;;;;16.88;3.35;;;;;;;9.36;100.00;100518.50;6209673;23;20051;-85
2022/01/03 01:24:09;;;;;;;16.63;2.55;;;;;;;9.42;100.00;100500.94;6159280;23;20406;-85
2022/01/03 01:29:18;;;;;;;17.08;2.88;;;;;;;9.45;100.00;100508.63;6167421;23;20414;-87
2022/01/03 01:31:48;;;;;;;15.10;3.38;;;;;;;9.48;100.00;100503.78;6158289;23;20021;-85
2022/01/03 01:34:26;;;;;;;17.75;3.25;;;;;;;9.47;100.00;100517.34;6184382;23;20020;-86
2022/01/03 01:36:54;;;;;;;12.60;3.03;;;;;;;9.53;100.00;100505.16;6160701;23;20037;-86
2022/01/03 01:39:22;;;;;;;18.05;3.10;;;;;;;9.51;100.00;100510.66;6184428;23;20477;-86
2022/01/03 01:41:51;;;;;;;12.50;3.22;;;;;;;9.55;100.00;100509.34;6182677;23;20032;-85
2022/01/03 01:44:17;;;;;;;18.38;3.70;;;;;;;9.57;100.00;100515.34;6207729;23;20025;-85
2022/01/03 01:46:46;;;;;;;16.77;2.42;;;;;;;9.56;100.00;100504.81;6209552;23;20102;-86
2022/01/03 01:49:14;;;;;;;;;;;;;;;9.59;100.00;100525.91;6185246;23;20079;-86
2022/01/03 01:51:43;;;;;;;15.45;2.45;;;;;;;9.51;100.00;100509.81;6208231;23;19908;-85
2022/01/03 01:54:14;;;;;;;18.25;3.30;;;;;;;9.52;100.00;100506.13;6160371;23;20020;-86
2022/01/03 01:57:20;;;;;;;18.77;2.63;;;;;;;9.57;100.00;100511.84;6207592;23;20412;-86
2022/01/03 02:00:05;;;;;;;17.15;3.30;;;;;;;9.60;100.00;100511.50;6149389;23;20351;-85
2022/01/03 02:02:45;;;;;;;15.23;3.53;;;;;;;9.56;100.00;100486.06;6210421;23;20016;-85
2022/01/03 02:05:26;;;;;;;15.70;3.17;;;;;;;9.58;100.00;100506.31;6210781;23;20029;-84
2022/01/03 02:08:01;;;;;;;16.85;3.38;;;;;;;9.60;100.00;100531.09;6183951;23;20355;-85
2022/01/03 02:10:43;;;;;;;18.25;3.53;;;;;;;9.61;100.00;100519.41;6183419;23;20075;-86
2022/01/03 02:13:10;;;;;;;16.83;3.15;;;;;;;9.64;100.00;100511.03;6158508;23;20021;-85
2022/01/03 02:15:37;;;;;;;20.38;3.92;;;;;;;9.65;100.00;100550.19;6210226;23;20082;-87
2022/01/03 02:18:03;;;;;;;19.73;3.10;;;;;;;9.65;100.00;100528.75;6208952;23;20035;-86
2022/01/03 02:20:30;;;;;;;16.85;3.65;;;;;;;9.67;100.00;100521.41;6183305;23;20020;-85
2022/01/03 02:22:56;;;;;;;17.38;3.33;;;;;;;9.66;100.00;100525.06;6183720;23;20017;-86
2022/01/03 02:25:24;;;;;;;16.20;3.40;;;;;;;9.68;100.00;100517.72;6184125;23;20025;-85
2022/01/03 02:27:50;;;;;;;17.63;2.72;;;;;;;9.68;100.00;100520.41;6183251;23;20024;-85
2022/01/03 02:30:23;;;;;;;17.83;3.47;;;;;;;9.70;100.00;100517.56;6210094;23;20103;-85
2022/01/03 02:32:48;;;;;;;15.35;3.22;;;;;;;9.68;100.00;100528.44;6209646;23;20509;-86
2022/01/03 02:35:17;;;;;;;22.77;3.40;;;;;;;9.70;100.00;100547.03;6183760;23;20240;-86
2022/01/03 02:37:44;;;;;;;20.55;3.65;;;;;;;9.69;100.00;100530.09;6209528;23;20012;-85
2022/01/03 02:40:11;;;;;;;18.50;2.92;;;;;;;9.65;100.00;100536.81;6183797;23;20366;-85
2022/01/03 02:42:40;;;;;;;23.08;4.32;;;;;;;9.67;100.00;100552.72;6209396;23;20012;-86
2022/01/03 02:45:08;;;;;;;20.17;3.63;;;;;;;9.67;100.00;100534.81;6183068;23;20477;-86
2022/01/03 02:47:34;;;;;;;23.38;3.75;;;;;;;9.64;100.00;100548.53;6184607;23;20017;-87
2022/01/03 02:50:00;;;;;;;13.35;2.88;;;;;;;9.63;100.00;100522.72;6157313;23;20040;-87
2022/01/03 02:52:26;;;;;;;15.65;3.20;;;;;;;9.65;100.00;100530.59;6210270;23;20016;-85
2022/01/03 02:54:52;;;;;;;18.10;3.13;;;;;;;9.65;100.00;100538.66;6158119;23;20051;-86
2022/01/03 02:57:24;;;;;;;17.02;2.95;;;;;;;9.66;100.00;100535.78;6183226;23;20297;-86
2022/01/03 02:59:57;;;;;;;18.90;3.25;;;;;;;9.66;100.00;100546.50;6158802;23;20466;-86
2022/01/03 03:02:23;;;;;;;17.88;3.45;;;;;;;9.64;100.00;100543.19;6209662;23;20040;-86
2022/01/03 03:04:57;;;;;;;18.20;3.15;;;;;;;9.65;100.00;100539.47;6157412;23;20032;-86
2022/01/03 03:07:25;;;;;;;18.38;3.22;;;;;;;9.64;100.00;100561.09;6184820;23;20016;-86
2022/01/03 03:09:51;;;;;;;16.15;2.85;;;;;;;9.63;100.00;100564.75;6209016;23;20020;-85
2022/01/03 03:12:17;;;;;;;16.83;3.40;;;;;;;9.65;99.68;100550.19;6210237;23;20373;-86
2022/01/03 03:14:43;;;;;;;18.98;3.55;;;;;;;9.65;99.85;100546.69;6182288;23;20451;-86
2022/01/03 03:17:08;;;;;;;12.60;2.75;;;;;;;9.62;99.16;100550.53;6180078;23;20063;-86
2022/01/03 03:19:53;;;;;;;21.02;2.92;;;;;;;9.67;99.72;100533.97;6177247;23;20020;-85
2022/01/03 03:22:18;;;;;;;21.73;3.90;;;;;;;9.67;99.32;100552.72;6205685;23;20459;-86
2022/01/03 03:24:44;;;;;;;18.45;3.67;;;;;;;9.67;99.64;100515.22;6203247;23;20027;-85
2022/01/03 03:27:11;;;;;;;24.05;4.82;;;;;;;9.66;99.69;100553.72;6177396;23;20017;-86
2022/01/03 03:29:48;;;;;;;23.75;3.03;;;;;;;9.68;99.23;100531.13;6203992;23;20026;-86
2022/01/03 03:32:15;;;;;;;16.42;3.50;;;;;;;9.64;99.91;100519.06;6205104;23;20317;-86
2022/01/03 03:34:42;;;;;;;15.00;2.97;;;;;;;9.64;99.42;100536.97;6201228;23;20012;-86
2022/01/03 03:37:09;;;;;;;19.05;3.72;;;;;;;9.64;99.15;100527.09;6177980;23;20569;-86
2022/01/03 03:39:36;;;;;;;18.13;3.97;;;;;;;9.64;99.04;100527.09;6179403;23;20093;-86
2022/01/03 03:42:04;;;;;;;20.50;3.38;;;;;;;9.67;98.92;100545.53;6202620;23;20016;-85
2022/01/03 03:44:30;;;;;;;21.05;3.55;;;;;;;9.69;98.86;100551.53;6178038;23;20047;-86
2022/01/03 03:46:55;;;;;;;19.75;3.13;;;;;;;9.69;98.96;100548.84;6177995;23;20466;-85
2022/01/03 03:49:21;;;;;;;17.40;3.05;;;;;;;9.69;99.01;100531.94;6202345;23;20348;-86
2022/01/03 03:51:46;;;;;;;15.60;3.55;;;;;;;9.69;98.30;100545.34;6176829;23;20016;-86
2022/01/03 03:54:12;;;;;;;21.00;3.05;;;;;;;9.68;98.94;100528.44;6179889;23;20017;-87
2022/01/03 03:56:38;;;;;;;21.27;3.58;;;;;;;9.68;98.60;100544.50;6152983;23;20017;-86
2022/01/03 03:59:03;;;;;;;15.18;3.38;;;;;;;9.67;98.62;100585.72;6177626;23;20023;-87
2022/01/03 04:01:29;;;;;;;21.08;4.25;;;;;;;9.71;99.98;100538.81;6176953;23;20012;-86
2022/01/03 04:03:54;;;;;;;19.60;3.70;;;;;;;9.68;98.72;100541.00;6203364;23;20048;-86
2022/01/03 04:06:19;;;;;;;16.65;3.33;;;;;;;9.68;98.78;100528.44;6178184;23;20024;-86
2022/01/03 04:08:45;;;;;;;20.35;4.03;;;;;;;9.68;98.81;100533.78;6176167;23;20032;-86
2022/01/03 04:11:13;;;;;;;16.67;3.42;;;;;;;9.69;98.14;100550.69;6178012;23;20016;-85
2022/01/03 04:13:39;;;;;;;21.38;4.10;;;;;;;9.69;99.51;100548.03;6177443;23;20016;-86
2022/01/03 04:16:05;;;;;;;14.93;2.92;;;;;;;9.69;98.69;100550.69;6178123;23;20024;-85
2022/01/03 04:18:30;;;;;;;22.25;4.15;;;;;;;9.71;99.68;100548.69;6178436;23;20027;-86
2022/01/03 04:20:55;;;;;;;13.75;3.33;;;;;;;9.67;98.89;100553.56;6126210;23;20020;-85
2022/01/03 04:23:21;;;;;;;21.52;3.88;;;;;;;9.67;99.28;100553.56;6177657;23;20051;-85
2022/01/03 04:25:46;;;;;;;16.55;3.42;;;;;;;9.66;98.62;100533.09;6177240;23;20445;-86
2022/01/03 04:28:12;;;;;;;22.48;4.07;;;;;;;9.65;99.77;100557.41;6177328;23;20025;-85
2022/01/03 04:30:37;;;;;;;18.65;3.28;;;;;;;9.64;99.43;100559.25;6176870;23;20027;-86
2022/01/03 04:33:02;;;;;;;20.98;4.38;;;;;;;9.66;100.00;100557.22;6128267;23;20102;-85
2022/01/03 04:35:28;;;;;;;21.55;3.92;;;;;;;9.67;100.00;100558.09;6202802;23;20021;-86
2022/01/03 04:37:53;;;;;;;20.80;4.55;;;;;;;9.65;100.00;100555.56;6152426;23;20048;-85
2022/01/03 04:40:19;;;;;;;13.32;2.90;;;;;;;9.64;100.00;100553.91;6127884;23;20021;-86
2022/01/03 04:42:45;;;;;;;22.60;3.78;;;;;;;9.60;99.82;100549.84;6127518;23;20028;-87
2022/01/03 04:45:10;;;;;;;23.65;4.30;;;;;;;9.61;99.67;100530.09;6204043;23;20021;-85
2022/01/03 04:47:36;;;;;;;17.92;4.68;;;;;;;9.63;99.34;100546.84;6180654;23;20012;-86
2022/01/03 04:50:03;;;;;;;25.05;4.63;;;;;;;9.63;100.00;100554.03;6177052;23;20024;-87
2022/01/03 04:52:28;;;;;;;23.38;4.63;;;;;;;9.61;100.00;100542.63;6177754;23;20126;-86
2022/01/03 04:54:54;;;;;;;17.08;3.75;;;;;;;9.59;99.58;100531.28;6177905;23;20029;-85
2022/01/03 04:57:19;;;;;;;15.50;4.10;;;;;;;9.59;99.78;100540.13;6152182;23;20394;-87
2022/01/03 04:59:46;;;;;;;20.58;5.20;;;;;;;9.60;99.40;100516.88;6177563;23;20848;-86
2022/01/03 05:02:11;;;;;;;17.63;5.05;;;;;;;9.59;98.73;100525.91;6178881;23;20078;-85
2022/01/03 05:04:37;;;;;;;16.90;3.78;;;;;;;9.58;98.59;100516.19;6152625;23;20024;-87
2022/01/03 05:07:03;;;;;;;19.27;5.10;;;;;;;9.56;99.83;100537.78;6177223;23;20025;-86
2022/01/03 05:09:28;;;;;;;18.50;5.50;;;;;;;9.55;100.00;100533.44;6154093;23;20020;-85
2022/01/03 05:11:55;;;;;;;19.90;5.28;;;;;;;9.52;99.68;100544.47;6203843;23;20024;-85
2022/01/03 05:14:20;;;;;;;21.02;4.63;;;;;;;9.52;99.70;100541.78;6178166;23;20027;-86
2022/01/03 05:16:46;;;;;;;17.58;4.60;;;;;;;9.53;100.00;100531.94;6178132;23;20375;-84
2022/01/03 05:19:12;;;;;;;22.45;5.13;;;;;;;9.49;99.42;100550.16;6203101;23;20024;-86
2022/01/03 05:21:37;;;;;;;18.65;4.68;;;;;;;9.51;99.86;100524.03;6152529;23;20700;-85
2022/01/03 05:24:03;;;;;;;21.90;5.55;;;;;;;9.47;99.96;100525.38;6128168;23;20021;-85
2022/01/03 05:26:28;;;;;;;18.30;4.47;;;;;;;9.46;99.76;100545.94;6204226;23;20021;-85
2022/01/03 05:28:54;;;;;;;19.10;4.90;;;;;;;9.46;100.00;100529.03;6127426;23;20484;-86
2022/01/03 05:31:20;;;;;;;24.27;5.13;;;;;;;9.43;99.99;100535.56;6206865;23;20100;-86
2022/01/03 05:33:45;;;;;;;22.77;5.50;;;;;;;9.42;100.00;100531.22;6183164;23;20024;-86
2022/01/03 05:36:11;;;;;;;22.58;5.70;;;;;;;9.42;100.00;100522.34;6182967;23;20020;-86
2022/01/03 05:38:36;;;;;;;19.90;5.90;;;;;;;9.39;100.00;100530.72;6159238;23;20574;-85
2022/01/03 05:41:02;;;;;;;14.95;4.47;;;;;;;9.40;100.00;100524.34;6183220;23;20021;-86
2022/01/03 05:43:31;;;;;;;21.20;5.78;;;;;;;9.39;100.00;100528.03;6205976;23;20032;-85
2022/01/03 05:45:56;;;;;;;;;;;;;;;9.41;100.00;100516.16;6204326;23;20021;-84
2022/01/03 05:48:23;;;;;;;21.00;5.78;;;;;;;9.36;100.00;100512.31;6205173;23;19930;-86
2022/01/03 05:50:48;;;;;;;20.52;5.75;;;;;;;9.42;100.00;100517.00;6202963;23;20220;-85
2022/01/03 05:53:14;;;;;;;12.43;4.38;;;;;;;9.41;100.00;100520.69;6210984;23;20079;-85
2022/01/03 05:55:39;;;;;;;21.05;6.07;;;;;;;9.43;100.00;100524.03;6134196;23;20020;-86
2022/01/03 05:58:04;;;;;;;16.70;5.30;;;;;;;9.43;100.00;100526.69;6134361;23;20013;-85
2022/01/03 06:00:30;;;;;;;19.35;4.90;;;;;;;9.40;100.00;100510.97;6183806;23;20016;-84
2022/01/03 06:02:58;;;;;;;17.27;5.28;;;;;;;9.42;100.00;100515.16;6179864;23;20100;-85
2022/01/03 06:08:18;;;;;;;26.20;6.20;;;;;;;9.40;100.00;100530.53;6160377;23;20234;-86
2022/01/03 06:10:45;;;;;;;19.38;5.63;;;;;;;9.39;100.00;100517.31;6154550;23;20023;-85
2022/01/03 06:13:10;;;;;;;22.70;5.95;;;;;;;9.39;100.00;100520.84;6211018;23;20444;-86
2022/01/03 06:15:37;;;;;;;23.65;6.05;;;;;;;9.42;100.00;100530.38;6210303;23;20055;-86
2022/01/03 06:18:04;;;;;;;22.55;6.20;;;;;;;9.41;100.00;100510.81;6208472;23;20023;-86
2022/01/03 06:20:31;;;;;;;24.85;5.90;;;;;;;9.39;100.00;100512.81;6208732;23;20032;-86
2022/01/03 06:22:56;;;;;;;24.23;6.15;;;;;;;9.39;100.00;100509.28;6180201;23;20159;-87
2022/01/03 06:25:22;;;;;;;18.88;5.65;;;;;;;9.39;100.00;100517.31;6179815;23;20024;-86
2022/01/03 06:27:47;;;;;;;20.48;5.70;;;;;;;9.37;100.00;100513.97;6153005;23;20021;-86
2022/01/03 06:30:12;;;;;;;20.60;5.57;;;;;;;9.38;100.00;100503.09;6155092;23;20016;-87
2022/01/03 06:32:38;;;;;;;21.58;6.15;;;;;;;9.36;100.00;100485.53;6133590;23;20232;-86
2022/01/03 06:35:04;;;;;;;22.52;5.63;;;;;;;9.33;100.00;100494.72;6182970;23;20016;-86
2022/01/03 06:37:30;;;;;;;25.17;5.97;;;;;;;9.31;100.00;100474.44;6183870;23;20078;-87
2022/01/03 06:39:55;;;;;;;20.95;5.13;;;;;;;9.30;100.00;100487.00;6210255;23;20025;-86
2022/01/03 06:42:21;;;;;;;24.98;6.05;;;;;;;9.31;100.00;100488.69;6181046;23;20078;-86
2022/01/03 06:44:48;;;;;;;20.08;6.18;;;;;;;9.26;100.00;100491.84;6205868;23;20478;-85
2022/01/03 06:47:15;;;;;;;17.10;5.60;;;;;;;9.25;100.00;100494.69;6203920;23;20048;-86
2022/01/03 06:49:41;;;;;;;17.50;5.28;;;;;;;9.26;100.00;100496.34;6177972;23;20103;-85
2022/01/03 06:52:06;;;;;;;23.63;4.50;;;;;;;9.24;100.00;100496.53;6203521;23;20622;-88
2022/01/03 06:54:33;;;;;;;22.00;5.93;;;;;;;9.25;100.00;100490.16;6204627;23;20012;-86
2022/01/03 06:56:59;;;;;;;23.45;5.95;;;;;;;9.26;100.00;100474.94;6205260;23;20020;-85
2022/01/03 06:59:24;;;;;;;16.25;3.53;;;;;;;9.23;100.00;100476.09;6179552;23;20016;-86
2022/01/03 07:01:50;;;;;;;20.52;4.55;;;;;;;9.25;100.00;100490.16;6204016;23;20022;-88
2022/01/03 07:04:16;;;;;;;22.65;4.53;;;;;;;9.23;100.00;100492.16;6178273;23;20459;-86
2022/01/03 07:06:42;;;;;;;20.60;5.03;;;;;;;9.24;100.00;100488.50;6204221;23;20384;-85
2022/01/03 07:09:07;;;;;;;19.08;5.10;;;;;;;9.24;100.00;100491.19;6153977;23;20020;-86
2022/01/03 07:11:34;;;;;;;17.85;4.35;;;;;;;9.21;100.00;100494.19;6205160;23;20061;-86
2022/01/03 07:19:31;;;;;;;21.15;5.10;;;;;;;9.22;100.00;100490.50;6182345;23;20095;-86
2022/01/03 07:22:00;;;;;;;21.10;5.57;;;;;;;9.24;100.00;100487.66;6178301;23;20040;-86
2022/01/03 07:24:26;;;;;;;14.48;5.63;;;;;;;9.22;100.00;100503.03;6180295;23;20471;-85
2022/01/03 07:26:52;;;;;;;17.50;4.22;;;;;;;9.23;100.00;100478.78;6183442;23;20374;-85
2022/01/03 07:29:17;;;;;;;24.67;5.65;;;;;;;9.30;100.00;100502.25;6159034;23;20211;-86
2022/01/03 07:31:43;;;;;;;22.13;5.38;;;;;;;9.31;100.00;100504.75;6159185;23;20143;-86
2022/01/03 07:34:08;;;;;;;27.88;6.47;;;;;;;9.30;100.00;100502.25;6155494;23;20020;-86
2022/01/03 07:36:33;;;;;;;18.65;4.50;;;;;;;9.31;100.00;100493.19;6127997;23;20055;-86
2022/01/03 07:38:59;;;;;;;24.27;5.35;;;;;;;9.33;100.00;100493.88;6130329;23;20029;-86
2022/01/03 07:41:24;;;;;;;20.80;5.05;;;;;;;9.33;100.00;100494.72;6178357;23;20021;-86
2022/01/03 07:43:51;;;;;;;18.52;4.90;;;;;;;9.35;100.00;100491.84;6178587;23;20017;-86
2022/01/03 07:46:16;;;;;;;19.25;3.97;;;;;;;9.33;100.00;100491.19;6131102;23;20017;-87
2022/01/03 07:48:43;;;;;;;21.08;4.88;;;;;;;9.35;100.00;100489.19;6181954;23;20023;-87
2022/01/03 07:51:08;;;;;;;19.35;4.85;;;;;;;9.37;100.00;100492.53;6203586;23;20610;-86
2022/01/03 07:53:34;;;;;;;13.90;4.38;;;;;;;9.35;100.00;100482.00;6177415;23;20012;-85
2022/01/03 07:55:59;;;;;;;16.58;4.82;;;;;;;9.37;100.00;100492.53;6177403;23;20028;-86
2022/01/03 07:58:25;;;;;;;20.58;4.68;;;;;;;9.36;100.00;100470.28;6154911;23;20483;-86
2022/01/03 08:00:50;;;;;;;19.95;4.50;;;;;;;9.37;100.00;100463.09;6177357;23;20020;-86
2022/01/03 08:03:16;;;;;;;16.52;4.82;;;;;;;9.36;100.00;100480.16;6179749;23;20023;-85
2022/01/03 08:05:41;;;;;;;18.73;4.53;;;;;;;9.36;100.00;100480.16;6202512;23;20427;-86
2022/01/03 08:08:09;;;;;;;18.52;5.20;;;;;;;9.38;100.00;100483.50;6176892;23;20468;-87
2022/01/03 08:10:39;;;;;;;23.15;5.00;;;;;;;9.38;100.00;100480.81;6153909;23;20012;-86
2022/01/03 08:13:04;;;;;;;;;;;;;;;9.40;100.00;100492.22;6180001;23;20025;-86
2022/01/03 08:15:30;;;;;;;21.55;4.75;;;;;;;9.33;100.00;100492.03;6204860;23;19977;-86
2022/01/03 08:17:56;;;;;;;14.02;4.88;;;;;;;9.35;100.00;100503.44;6127404;23;20013;-86
2022/01/03 08:20:25;;;;;;;19.42;4.38;;;;;;;9.40;100.00;100505.59;6157272;23;20028;-86
2022/01/03 08:22:51;;;;;;;12.80;4.15;;;;;;;9.42;100.00;100500.94;6209458;23;20375;-85
2022/01/03 08:25:17;;;;;;;19.67;4.65;;;;;;;9.44;100.00;100507.81;6159823;23;20304;-86
2022/01/03 08:27:43;;;;;;;23.65;4.35;;;;;;;9.45;100.00;100500.59;6182192;23;20024;-86
2022/01/03 08:30:08;;;;;;;16.30;3.67;;;;;;;9.47;100.00;100499.44;6210488;23;20071;-87
2022/01/03 08:32:34;;;;;;;22.75;4.82;;;;;;;9.51;100.00;100494.59;6210264;23;20466;-86
2022/01/03 08:34:59;;;;;;;18.85;5.05;;;;;;;9.52;100.00;100503.44;6158312;23;20040;-86
2022/01/03 08:37:25;;;;;;;22.33;3.90;;;;;;;9.51;100.00;100489.22;6211329;23;20439;-87
2022/01/03 08:39:50;;;;;;;18.85;4.40;;;;;;;9.49;100.00;100477.81;6178138;23;20444;-87
2022/01/03 08:42:17;;;;;;;17.95;4.07;;;;;;;9.51;100.00;100504.47;6132418;23;20352;-87
2022/01/03 08:44:42;;;;;;;15.68;4.22;;;;;;;9.51;100.00;100499.94;6158878;23;20090;-86
2022/01/03 08:47:07;;;;;;;13.05;3.70;;;;;;;9.49;100.00;100501.94;6158710;23;20020;-86
2022/01/03 08:49:33;;;;;;;17.88;3.83;;;;;;;9.50;100.00;100490.25;6158233;23;20392;-87
2022/01/03 08:52:00;;;;;;;14.88;3.25;;;;;;;9.47;100.00;100493.25;6155404;23;20024;-87
2022/01/03 08:54:25;;;;;;;20.90;4.43;;;;;;;9.48;100.00;100490.38;6177363;23;20021;-86
2022/01/03 08:56:50;;;;;;;13.15;3.90;;;;;;;9.48;100.00;100500.28;6181433;23;20020;-86
2022/01/03 08:59:16;;;;;;;15.70;3.97;;;;;;;9.47;100.00;100501.28;6132439;23;20031;-86
2022/01/03 09:01:42;;;;;;;15.52;3.85;;;;;;;9.48;100.00;100500.28;6213271;23;20356;-87
2022/01/03 09:04:07;;;;;;;21.42;4.00;;;;;;;9.49;100.00;100489.41;6211594;23;20106;-87
2022/01/03 09:06:42;;;;;;;18.25;3.83;;;;;;;9.51;100.00;100485.72;6183969;23;20040;-86
2022/01/03 09:09:07;;;;;;;16.73;4.45;;;;;;;9.48;100.00;100500.28;6134464;23;20020;-87
2022/01/03 09:11:34;;;;;;;14.93;3.40;;;;;;;9.48;100.00;100485.03;6159979;23;20462;-86
2022/01/03 09:13:59;;;;;;;16.20;4.50;;;;;;;9.53;100.00;100486.41;6180071;23;20016;-87
2022/01/03 09:16:25;;;;;;;17.77;4.10;;;;;;;9.53;100.00;100487.22;6180486;23;20027;-86
2022/01/03 09:18:50;;;;;;;18.85;4.38;;;;;;;9.56;100.00;100497.59;6180761;23;20019;-86
2022/01/03 09:21:16;;;;;;;25.83;5.72;;;;;;;9.56;100.00;100504.81;6180496;23;20444;-86
2022/01/03 09:23:47;;;;;;;19.52;3.67;;;;;;;9.53;100.00;100497.09;6206587;23;20091;-86
2022/01/03 09:28:57;;;;;;;20.92;4.55;;;;;;;9.47;100.00;100479.84;6205698;23;20024;-87
2022/01/03 09:31:31;;;;;;;16.38;4.55;;;;;;;9.43;100.00;100482.00;6181425;23;20020;-86
2022/01/03 09:33:59;;;;;;;22.80;4.15;;;;;;;9.47;100.00;100488.72;6208134;23;20063;-87
2022/01/03 09:36:26;;;;;;;17.70;4.30;;;;;;;9.46;100.00;100486.19;6208379;23;20020;-86
2022/01/03 09:38:52;;;;;;;12.80;3.13;;;;;;;9.46;100.00;100476.31;6183144;23;20379;-86
2022/01/03 09:41:20;;;;;;;18.15;3.63;;;;;;;9.45;100.00;100476.50;6207599;23;20024;-86
2022/01/03 09:44:11;;;;;;;20.77;4.53;;;;;;;9.45;100.00;100479.16;6181641;23;20012;-86
2022/01/03 09:46:42;;;;;;;14.85;3.42;;;;;;;9.42;100.00;100491.06;6145453;23;20023;-88
2022/01/03 09:49:11;;;;;;;14.68;4.25;;;;;;;9.41;100.00;100477.84;6181223;23;20016;-86
2022/01/03 09:51:40;;;;;;;15.82;4.25;;;;;;;9.42;100.00;100479.50;6179284;23;20009;-87
2022/01/03 09:54:10;;;;;;;20.42;5.43;;;;;;;9.38;100.00;100473.66;6181188;23;20027;-87
2022/01/03 09:56:38;;;;;;;16.35;3.90;;;;;;;9.39;100.00;100485.19;6184118;23;20096;-88
2022/01/03 09:59:05;;;;;;;14.13;5.55;;;;;;;9.40;100.00;100482.31;6158737;23;21851;-87
2022/01/03 10:01:33;;;;;;;15.63;5.13;;;;;;;9.43;100.00;100481.16;6134489;23;20694;-85
2022/01/03 10:04:01;;;;;;;14.35;4.28;;;;;;;9.45;100.00;100496.06;6153670;23;20549;-86
2022/01/03 10:06:27;;;;;;;17.70;5.18;;;;;;;9.49;100.00;100478.69;6141736;23;20070;-86
2022/01/03 10:08:53;;;;;;;14.88;5.25;;;;;;;9.52;100.00;100474.81;6177330;23;20027;-86
2022/01/03 10:11:26;;;;;;;17.52;5.03;;;;;;;9.52;100.00;100469.47;6135873;23;20075;-87
2022/01/03 10:13:52;;;;;;;16.67;4.53;;;;;;;9.57;100.00;100461.78;6122749;23;20044;-88
2022/01/03 10:16:18;;;;;;;17.85;4.97;;;;;;;9.60;100.00;100465.97;6145375;23;20084;-88
2022/01/03 12:28:11;;;;;;;;;;;;;;;;;;;;;
2022/01/03 22:35:38;;;;;;;22.73;12.35;;;;;;;7.87;100.00;99787.59;5977649;23;20107;-88
2022/01/03 22:38:07;;;;;;;20.55;12.27;;;;;;;7.88;100.00;99779.44;5907389;24;20138;-88
2022/01/03 22:40:32;;;;;;;21.55;12.30;;;;;;;7.91;100.00;99770.22;6053283;23;20195;-88
2022/01/03 22:42:57;;;;;;;20.60;11.98;;;;;;;7.94;100.00;99777.06;6122429;23;20392;-88
2022/01/03 22:45:23;;;;;;;17.83;10.60;;;;;;;7.95;100.00;99768.06;6144821;23;20026;-87
2022/01/03 22:47:49;;;;;;;19.25;11.88;;;;;;;7.95;100.00;99763.53;6122820;23;20045;-88
2022/01/03 22:50:15;;;;;;;18.77;11.13;;;;;;;7.97;100.00;99755.34;6145017;23;20025;-87
2022/01/03 22:52:41;;;;;;;19.88;11.02;;;;;;;7.98;100.00;99759.69;6146587;23;20018;-87
2022/01/03 22:55:07;;;;;;;19.73;12.48;;;;;;;8.00;100.00;99744.31;6119124;23;20028;-87
2022/01/03 22:57:32;;;;;;;22.30;12.70;;;;;;;8.02;100.00;99747.66;6120352;23;20309;-87
2022/01/03 22:59:57;;;;;;;19.13;11.65;;;;;;;8.02;100.00;99751.16;6147989;23;20052;-87
2022/01/03 23:02:23;;;;;;;17.08;9.77;;;;;;;8.02;100.00;99736.97;6122003;23;20032;-89
2022/01/03 23:04:48;;;;;;;17.40;11.30;;;;;;;8.03;100.00;99730.63;6146313;23;20045;-88
2022/01/03 23:07:14;;;;;;;17.23;12.00;;;;;;;8.02;100.00;99732.44;6122318;23;20084;-89
2022/01/03 23:09:40;;;;;;;18.88;9.75;;;;;;;8.04;100.00;99729.63;6149886;23;20052;-88
2022/01/03 23:12:06;;;;;;;16.42;10.85;;;;;;;8.03;100.00;99722.63;6147353;23;20024;-89
2022/01/03 23:14:33;;;;;;;16.25;9.82;;;;;;;8.01;100.00;99703.25;6147028;23;20078;-88
2022/01/03 23:16:59;;;;;;;19.45;12.07;;;;;;;8.01;100.00;99713.94;6128418;23;20021;-88
2022/01/03 23:19:24;;;;;;;17.10;10.57;;;;;;;7.98;100.00;99709.78;6145524;23;20356;-88
2022/01/03 23:21:50;;;;;;;17.90;10.48;;;;;;;7.97;100.00;99699.25;6121601;23;20088;-88
2022/01/03 23:24:16;;;;;;;15.10;10.18;;;;;;;7.96;100.00;99705.59;6117366;23;20021;-89
2022/01/03 23:26:41;;;;;;;15.77;9.70;;;;;;;7.95;100.00;99710.13;6120524;23;20028;-90
2022/01/03 23:29:07;;;;;;;19.13;10.73;;;;;;;7.95;100.00;99696.75;6169717;23;20023;-88
2022/01/03 23:31:33;;;;;;;16.67;9.60;;;;;;;7.94;100.00;99700.44;6094438;23;20092;-88
2022/01/03 23:34:00;;;;;;;15.38;9.93;;;;;;;7.95;100.00;99695.94;6147711;23;20345;-89
2022/01/03 23:36:25;;;;;;;17.88;12.20;;;;;;;7.95;100.00;99682.56;6145629;23;20185;-88
2022/01/03 23:38:51;;;;;;;16.13;10.73;;;;;;;7.95;100.00;99686.06;6072350;23;20025;-88
2022/01/03 23:41:16;;;;;;;21.15;11.30;;;;;;;7.91;100.00;99671.38;6095982;23;20436;-88
2022/01/03 23:43:42;;;;;;;16.42;11.52;;;;;;;7.95;100.00;99663.88;6120511;23;20023;-88
2022/01/03 23:46:08;;;;;;;17.10;11.98;;;;;;;7.91;100.00;99666.91;6143831;23;20491;-88
2022/01/03 23:48:34;;;;;;;17.77;9.98;;;;;;;7.93;100.00;99673.91;6173796;23;20092;-89